Snow/Ice From: 16-12-2017 16:00 Until: 17-12-2017 16:00 warning for: Snow/Ice Level: Yellow info button

Although rather usual in this region, locally or potentially dangerous phenomena are expected. (such as local winds, summer thunderstorms, rising streams or high waves) Be aware and pay attention to the latest weather updates, especially if you carry out activities exposed to weather or close to a stream or shoreline. 


Meteo18 Weather Cam more information Meteo18 Weather Cam


Thunder radar more information blitzortung!


warning for Snow/Ice more information rain snow radar


Visit our other weather sites:

Template documentation
and downloads

And another site



Weather Underground History page Text

Daily Summary for June 16, 2017 Units:  Both    English   Metric
« Previous Day
Next Day »
Daily Weekly Monthly Yearly Custom
  High: Low: Average:
Temperature: 74.7 °F /  23.7 °C 59 °F /  15.0 °C 67.6 °F /  19.8 °C
Dew Point: 56.3 °F /  13.5 °C 48.4 °F /  9.1 °C 52.9 °F /  11.6 °C
Humidity: 87 % 41 % 61 %
Wind Speed: 11 mph /  17.7 km/h - 3 mph /  4.9 km/h
Wind Gust: 17 mph /  27.4 km/h - -
Wind:- - WSW
Pressure: 30.3 in /  1027.3 hPa 30.2 in /  1021.2 hPa -
Precipitation: 0 in /  0.0 mm    
Historical Graphs
 
 
Tabular Data for June 16, 2017
Time Temperature Dew Point Pressure Wind Wind Speed Wind Gust Humidity Rainfall Rate (Hourly)
00:02 69.4 °F /  20.8 °C 52.5 °F /  11.4 °C 30.2 in /  1021.2 hPa NW 1 mph /  1.6 km/h 7 mph /  11.3 km/h 55 % 0 in /  0.0 mm
00:12 69.1 °F /  20.6 °C 52.2 °F /  11.2 °C 30.2 in /  1021.6 hPa NNW 2 mph /  3.2 km/h 7 mph /  11.3 km/h 55 % 0 in /  0.0 mm
00:17 68.9 °F /  20.5 °C 52 °F /  11.1 °C 30.2 in /  1021.6 hPa NW 2 mph /  3.2 km/h 7 mph /  11.3 km/h 55 % 0 in /  0.0 mm
00:22 68.7 °F /  20.4 °C 52.3 °F /  11.3 °C 30.2 in /  1021.6 hPa NNW 1 mph /  1.6 km/h 5 mph /  8.0 km/h 56 % 0 in /  0.0 mm
00:27 68.5 °F /  20.3 °C 52.2 °F /  11.2 °C 30.2 in /  1021.6 hPa NNW 1 mph /  1.6 km/h 5 mph /  8.0 km/h 56 % 0 in /  0.0 mm
00:32 68.4 °F /  20.2 °C 53.1 °F /  11.7 °C 30.2 in /  1021.6 hPa NW 2 mph /  3.2 km/h 5 mph /  8.0 km/h 58 % 0 in /  0.0 mm
00:37 68.2 °F /  20.1 °C 52.9 °F /  11.6 °C 30.2 in /  1021.2 hPa NNW 1 mph /  1.6 km/h 5 mph /  8.0 km/h 58 % 0 in /  0.0 mm
00:42 67.8 °F /  19.9 °C 52.9 °F /  11.6 °C 30.2 in /  1021.6 hPa NNW 2 mph /  3.2 km/h 5 mph /  8.0 km/h 59 % 0 in /  0.0 mm
00:47 67.6 °F /  19.8 °C 53.2 °F /  11.8 °C 30.2 in /  1021.6 hPa NNW 3 mph /  4.8 km/h 4 mph /  6.4 km/h 60 % 0 in /  0.0 mm
00:57 67.1 °F /  19.5 °C 53.6 °F /  12.0 °C 30.2 in /  1021.6 hPa NNW 2 mph /  3.2 km/h 4 mph /  6.4 km/h 62 % 0 in /  0.0 mm
01:02 66.9 °F /  19.4 °C 53.4 °F /  11.9 °C 30.2 in /  1021.6 hPa NNW 1 mph /  1.6 km/h 4 mph /  6.4 km/h 62 % 0 in /  0.0 mm
01:12 66.6 °F /  19.2 °C 53.6 °F /  12.0 °C 30.2 in /  1021.6 hPa NW 1 mph /  1.6 km/h 3 mph /  4.8 km/h 63 % 0 in /  0.0 mm
01:17 66.4 °F /  19.1 °C 53.4 °F /  11.9 °C 30.2 in /  1021.6 hPa NW 4 mph /  6.4 km/h 4 mph /  6.4 km/h 63 % 0 in /  0.0 mm
01:22 66.4 °F /  19.1 °C 53.4 °F /  11.9 °C 30.2 in /  1021.9 hPa NNW 2 mph /  3.2 km/h 4 mph /  6.4 km/h 63 % 0 in /  0.0 mm
01:27 66.4 °F /  19.1 °C 53.4 °F /  11.9 °C 30.2 in /  1021.9 hPa NNW 2 mph /  3.2 km/h 4 mph /  6.4 km/h 63 % 0 in /  0.0 mm
01:32 66.2 °F /  19.0 °C 52.9 °F /  11.6 °C 30.2 in /  1021.9 hPa NNW 2 mph /  3.2 km/h 4 mph /  6.4 km/h 62 % 0 in /  0.0 mm
01:37 66 °F /  18.9 °C 53.1 °F /  11.7 °C 30.2 in /  1021.9 hPa NNW 2 mph /  3.2 km/h 5 mph /  8.0 km/h 63 % 0 in /  0.0 mm
01:42 66 °F /  18.9 °C 53.1 °F /  11.7 °C 30.2 in /  1021.9 hPa NNW 2 mph /  3.2 km/h 5 mph /  8.0 km/h 63 % 0 in /  0.0 mm
01:47 65.8 °F /  18.8 °C 52.9 °F /  11.6 °C 30.2 in /  1021.9 hPa WNW 2 mph /  3.2 km/h 5 mph /  8.0 km/h 63 % 0 in /  0.0 mm
01:57 65.7 °F /  18.7 °C 53.2 °F /  11.8 °C 30.2 in /  1022.2 hPa NW 2 mph /  3.2 km/h 6 mph /  9.7 km/h 64 % 0 in /  0.0 mm
02:02 65.5 °F /  18.6 °C 53.4 °F /  11.9 °C 30.2 in /  1022.2 hPa NNW 5 mph /  8.0 km/h 6 mph /  9.7 km/h 65 % 0 in /  0.0 mm
02:12 65.1 °F /  18.4 °C 54.3 °F /  12.4 °C 30.2 in /  1022.2 hPa WNW 2 mph /  3.2 km/h 6 mph /  9.7 km/h 68 % 0 in /  0.0 mm
02:17 64.9 °F /  18.3 °C 54.5 °F /  12.5 °C 30.2 in /  1022.2 hPa WNW 1 mph /  1.6 km/h 6 mph /  9.7 km/h 69 % 0 in /  0.0 mm
02:22 64.9 °F /  18.3 °C 54.5 °F /  12.5 °C 30.2 in /  1022.2 hPa WNW 2 mph /  3.2 km/h 7 mph /  11.3 km/h 69 % 0 in /  0.0 mm
02:27 64.8 °F /  18.2 °C 54.7 °F /  12.6 °C 30.2 in /  1022.2 hPa West 1 mph /  1.6 km/h 7 mph /  11.3 km/h 70 % 0 in /  0.0 mm
02:32 64.8 °F /  18.2 °C 55.2 °F /  12.9 °C 30.2 in /  1022.2 hPa NW 4 mph /  6.4 km/h 9 mph /  14.5 km/h 71 % 0 in /  0.0 mm
02:37 64.9 °F /  18.3 °C 55.8 °F /  13.2 °C 30.2 in /  1022.2 hPa North 4 mph /  6.4 km/h 9 mph /  14.5 km/h 72 % 0 in /  0.0 mm
02:42 64.9 °F /  18.3 °C 55.8 °F /  13.2 °C 30.2 in /  1022.2 hPa WNW 2 mph /  3.2 km/h 10 mph /  16.1 km/h 72 % 0 in /  0.0 mm
02:47 64.9 °F /  18.3 °C 56.1 °F /  13.4 °C 30.2 in /  1022.2 hPa NW 4 mph /  6.4 km/h 10 mph /  16.1 km/h 73 % 0 in /  0.0 mm
02:57 64.8 °F /  18.2 °C 55.9 °F /  13.3 °C 30.2 in /  1022.2 hPa NW 2 mph /  3.2 km/h 8 mph /  12.9 km/h 73 % 0 in /  0.0 mm
03:02 64.6 °F /  18.1 °C 56.1 °F /  13.4 °C 30.2 in /  1022.2 hPa WNW 3 mph /  4.8 km/h 7 mph /  11.3 km/h 74 % 0 in /  0.0 mm
03:12 63.7 °F /  17.6 °C 55.6 °F /  13.1 °C 30.2 in /  1022.6 hPa WNW 1 mph /  1.6 km/h 5 mph /  8.0 km/h 75 % 0 in /  0.0 mm
03:17 63.3 °F /  17.4 °C 55.6 °F /  13.1 °C 30.2 in /  1022.6 hPa WNW 1 mph /  1.6 km/h 5 mph /  8.0 km/h 76 % 0 in /  0.0 mm
03:22 63.1 °F /  17.3 °C 55.4 °F /  13.0 °C 30.2 in /  1022.6 hPa NW 2 mph /  3.2 km/h 5 mph /  8.0 km/h 76 % 0 in /  0.0 mm
03:32 62.8 °F /  17.1 °C 55.4 °F /  13.0 °C 30.2 in /  1022.6 hPa NNW 2 mph /  3.2 km/h 4 mph /  6.4 km/h 77 % 0 in /  0.0 mm
03:37 62.4 °F /  16.9 °C 55.4 °F /  13.0 °C 30.2 in /  1022.6 hPa Calm   4 mph /  6.4 km/h 78 % 0 in /  0.0 mm
03:42 62.2 °F /  16.8 °C 55.2 °F /  12.9 °C 30.2 in /  1022.9 hPa Calm   3 mph /  4.8 km/h 78 % 0 in /  0.0 mm
03:47 62.1 °F /  16.7 °C 55.4 °F /  13.0 °C 30.2 in /  1022.9 hPa Calm   3 mph /  4.8 km/h 79 % 0 in /  0.0 mm
03:52 61.9 °F /  16.6 °C 55.6 °F /  13.1 °C 30.2 in /  1022.9 hPa Calm   3 mph /  4.8 km/h 80 % 0 in /  0.0 mm
03:57 61.9 °F /  16.6 °C 55.6 °F /  13.1 °C 30.2 in /  1022.9 hPa WNW 1 mph /  1.6 km/h 3 mph /  4.8 km/h 80 % 0 in /  0.0 mm
04:02 62.1 °F /  16.7 °C 55.8 °F /  13.2 °C 30.2 in /  1022.9 hPa Calm   3 mph /  4.8 km/h 80 % 0 in /  0.0 mm
04:12 62.1 °F /  16.7 °C 55.8 °F /  13.2 °C 30.2 in /  1022.9 hPa NW 1 mph /  1.6 km/h 3 mph /  4.8 km/h 80 % 0 in /  0.0 mm
04:17 62.1 °F /  16.7 °C 55.8 °F /  13.2 °C 30.2 in /  1023.2 hPa NW 1 mph /  1.6 km/h 2 mph /  3.2 km/h 80 % 0 in /  0.0 mm
04:22 61.9 °F /  16.6 °C 55.9 °F /  13.3 °C 30.2 in /  1023.2 hPa Calm   3 mph /  4.8 km/h 81 % 0 in /  0.0 mm
04:32 61.9 °F /  16.6 °C 56.3 °F /  13.5 °C 30.2 in /  1023.2 hPa North 2 mph /  3.2 km/h 6 mph /  9.7 km/h 82 % 0 in /  0.0 mm
04:37 61.9 °F /  16.6 °C 56.3 °F /  13.5 °C 30.2 in /  1023.2 hPa NNE 2 mph /  3.2 km/h 7 mph /  11.3 km/h 82 % 0 in /  0.0 mm
04:42 61.7 °F /  16.5 °C 56.1 °F /  13.4 °C 30.2 in /  1023.2 hPa North 2 mph /  3.2 km/h 7 mph /  11.3 km/h 82 % 0 in /  0.0 mm
04:47 61.3 °F /  16.3 °C 55.8 °F /  13.2 °C 30.2 in /  1023.2 hPa NNW 2 mph /  3.2 km/h 6 mph /  9.7 km/h 82 % 0 in /  0.0 mm
04:52 61.2 °F /  16.2 °C 55.6 °F /  13.1 °C 30.2 in /  1023.2 hPa NNW 4 mph /  6.4 km/h 6 mph /  9.7 km/h 82 % 0 in /  0.0 mm
04:57 61.3 °F /  16.3 °C 55.8 °F /  13.2 °C 30.2 in /  1023.2 hPa NNW 2 mph /  3.2 km/h 8 mph /  12.9 km/h 82 % 0 in /  0.0 mm
05:02 61.3 °F /  16.3 °C 55.8 °F /  13.2 °C 30.2 in /  1023.6 hPa North 3 mph /  4.8 km/h 8 mph /  12.9 km/h 82 % 0 in /  0.0 mm
05:12 61.2 °F /  16.2 °C 55.6 °F /  13.1 °C 30.2 in /  1023.6 hPa NNE 2 mph /  3.2 km/h 8 mph /  12.9 km/h 82 % 0 in /  0.0 mm
05:17 61 °F /  16.1 °C 55.4 °F /  13.0 °C 30.2 in /  1023.6 hPa North 4 mph /  6.4 km/h 6 mph /  9.7 km/h 82 % 0 in /  0.0 mm
05:22 61 °F /  16.1 °C 55.4 °F /  13.0 °C 30.2 in /  1023.6 hPa North 1 mph /  1.6 km/h 6 mph /  9.7 km/h 82 % 0 in /  0.0 mm
05:32 60.4 °F /  15.8 °C 55.2 °F /  12.9 °C 30.2 in /  1023.6 hPa NNE 5 mph /  8.0 km/h 7 mph /  11.3 km/h 83 % 0 in /  0.0 mm
05:37 60.4 °F /  15.8 °C 55.2 °F /  12.9 °C 30.2 in /  1023.6 hPa NW 1 mph /  1.6 km/h 7 mph /  11.3 km/h 83 % 0 in /  0.0 mm
05:42 60.4 °F /  15.8 °C 55.2 °F /  12.9 °C 30.2 in /  1023.6 hPa NNW 2 mph /  3.2 km/h 7 mph /  11.3 km/h 83 % 0 in /  0.0 mm
05:52 60.4 °F /  15.8 °C 55.2 °F /  12.9 °C 30.2 in /  1023.6 hPa WNW 1 mph /  1.6 km/h 7 mph /  11.3 km/h 83 % 0 in /  0.0 mm
05:57 60.3 °F /  15.7 °C 55 °F /  12.8 °C 30.2 in /  1023.6 hPa NNW 4 mph /  6.4 km/h 6 mph /  9.7 km/h 83 % 0 in /  0.0 mm
06:02 60.1 °F /  15.6 °C 55.2 °F /  12.9 °C 30.2 in /  1023.6 hPa NW 1 mph /  1.6 km/h 6 mph /  9.7 km/h 84 % 0 in /  0.0 mm
06:12 59.5 °F /  15.3 °C 55 °F /  12.8 °C 30.2 in /  1023.9 hPa NW 1 mph /  1.6 km/h 6 mph /  9.7 km/h 85 % 0 in /  0.0 mm
06:17 59.4 °F /  15.2 °C 54.9 °F /  12.7 °C 30.2 in /  1023.9 hPa Calm   5 mph /  8.0 km/h 85 % 0 in /  0.0 mm
06:22 59.4 °F /  15.2 °C 55.2 °F /  12.9 °C 30.2 in /  1023.9 hPa NW 3 mph /  4.8 km/h 5 mph /  8.0 km/h 86 % 0 in /  0.0 mm
06:32 59.2 °F /  15.1 °C 55.4 °F /  13.0 °C 30.3 in /  1024.3 hPa Calm   3 mph /  4.8 km/h 87 % 0 in /  0.0 mm
06:42 59.4 °F /  15.2 °C 55.2 °F /  12.9 °C 30.3 in /  1024.3 hPa NNE 2 mph /  3.2 km/h 3 mph /  4.8 km/h 86 % 0 in /  0.0 mm
06:47 59.4 °F /  15.2 °C 55.2 °F /  12.9 °C 30.3 in /  1024.3 hPa NW 3 mph /  4.8 km/h 4 mph /  6.4 km/h 86 % 0 in /  0.0 mm
06:52 59.4 °F /  15.2 °C 55.2 °F /  12.9 °C 30.3 in /  1024.6 hPa NE 1 mph /  1.6 km/h 4 mph /  6.4 km/h 86 % 0 in /  0.0 mm
07:02 59.2 °F /  15.1 °C 54.7 °F /  12.6 °C 30.3 in /  1024.6 hPa North 3 mph /  4.8 km/h 7 mph /  11.3 km/h 85 % 0 in /  0.0 mm
07:12 59 °F /  15.0 °C 54.1 °F /  12.3 °C 30.3 in /  1024.6 hPa NNW 5 mph /  8.0 km/h 8 mph /  12.9 km/h 84 % 0 in /  0.0 mm
07:17 59 °F /  15.0 °C 54.1 °F /  12.3 °C 30.3 in /  1024.6 hPa NNE 2 mph /  3.2 km/h 7 mph /  11.3 km/h 84 % 0 in /  0.0 mm
07:22 59 °F /  15.0 °C 54.1 °F /  12.3 °C 30.3 in /  1024.6 hPa NNW 3 mph /  4.8 km/h 7 mph /  11.3 km/h 84 % 0 in /  0.0 mm
07:27 59.2 °F /  15.1 °C 54.3 °F /  12.4 °C 30.3 in /  1024.9 hPa NNW 4 mph /  6.4 km/h 7 mph /  11.3 km/h 84 % 0 in /  0.0 mm
07:32 59.4 °F /  15.2 °C 54.1 °F /  12.3 °C 30.3 in /  1024.9 hPa NNW 4 mph /  6.4 km/h 11 mph /  17.7 km/h 83 % 0 in /  0.0 mm
07:42 59.7 °F /  15.4 °C 54.1 °F /  12.3 °C 30.3 in /  1024.9 hPa NNE 1 mph /  1.6 km/h 11 mph /  17.7 km/h 82 % 0 in /  0.0 mm
07:52 60.1 °F /  15.6 °C 54.3 °F /  12.4 °C 30.3 in /  1024.9 hPa NNE 2 mph /  3.2 km/h 7 mph /  11.3 km/h 81 % 0 in /  0.0 mm
07:57 59.7 °F /  15.4 °C 54 °F /  12.2 °C 30.3 in /  1025.3 hPa NNW 3 mph /  4.8 km/h 7 mph /  11.3 km/h 81 % 0 in /  0.0 mm
08:02 59.7 °F /  15.4 °C 54 °F /  12.2 °C 30.3 in /  1025.3 hPa NNW 2 mph /  3.2 km/h 7 mph /  11.3 km/h 81 % 0 in /  0.0 mm
08:12 59.5 °F /  15.3 °C 53.8 °F /  12.1 °C 30.3 in /  1025.6 hPa NNE 6 mph /  9.7 km/h 7 mph /  11.3 km/h 81 % 0 in /  0.0 mm
08:17 59.5 °F /  15.3 °C 53.4 °F /  11.9 °C 30.3 in /  1025.6 hPa WNW 2 mph /  3.2 km/h 11 mph /  17.7 km/h 80 % 0 in /  0.0 mm
08:22 59.5 °F /  15.3 °C 53.1 °F /  11.7 °C 30.3 in /  1025.6 hPa NNW 5 mph /  8.0 km/h 11 mph /  17.7 km/h 79 % 0 in /  0.0 mm
08:32 59.7 °F /  15.4 °C 52.9 °F /  11.6 °C 30.3 in /  1025.6 hPa NNW 4 mph /  6.4 km/h 9 mph /  14.5 km/h 78 % 0 in /  0.0 mm
08:42 60.3 °F /  15.7 °C 53.1 °F /  11.7 °C 30.3 in /  1025.6 hPa NNW 2 mph /  3.2 km/h 8 mph /  12.9 km/h 77 % 0 in /  0.0 mm
08:52 60.6 °F /  15.9 °C 52.7 °F /  11.5 °C 30.3 in /  1025.6 hPa NNE 1 mph /  1.6 km/h 7 mph /  11.3 km/h 75 % 0 in /  0.0 mm
09:02 61 °F /  16.1 °C 52.7 °F /  11.5 °C 30.3 in /  1025.6 hPa NNE 4 mph /  6.4 km/h 8 mph /  12.9 km/h 74 % 0 in /  0.0 mm
09:12 61.2 °F /  16.2 °C 52 °F /  11.1 °C 30.3 in /  1025.6 hPa NNE 4 mph /  6.4 km/h 7 mph /  11.3 km/h 72 % 0 in /  0.0 mm
09:17 61.3 °F /  16.3 °C 52.2 °F /  11.2 °C 30.3 in /  1025.6 hPa NE 3 mph /  4.8 km/h 6 mph /  9.7 km/h 72 % 0 in /  0.0 mm
09:22 61.5 °F /  16.4 °C 52 °F /  11.1 °C 30.3 in /  1025.6 hPa ENE 3 mph /  4.8 km/h 6 mph /  9.7 km/h 71 % 0 in /  0.0 mm
09:32 62.4 °F /  16.9 °C 52.2 °F /  11.2 °C 30.3 in /  1025.6 hPa ENE 1 mph /  1.6 km/h 6 mph /  9.7 km/h 69 % 0 in /  0.0 mm
09:42 63.9 °F /  17.7 °C 52.7 °F /  11.5 °C 30.3 in /  1026.0 hPa Calm   6 mph /  9.7 km/h 67 % 0 in /  0.0 mm
09:47 64.8 °F /  18.2 °C 52.3 °F /  11.3 °C 30.3 in /  1026.0 hPa Calm   4 mph /  6.4 km/h 64 % 0 in /  0.0 mm
09:52 64.6 °F /  18.1 °C 51.6 °F /  10.9 °C 30.3 in /  1026.0 hPa West 2 mph /  3.2 km/h 3 mph /  4.8 km/h 63 % 0 in /  0.0 mm
09:57 64.6 °F /  18.1 °C 51.6 °F /  10.9 °C 30.3 in /  1026.0 hPa WSW 1 mph /  1.6 km/h 4 mph /  6.4 km/h 63 % 0 in /  0.0 mm
10:02 64.8 °F /  18.2 °C 52.3 °F /  11.3 °C 30.3 in /  1026.0 hPa WSW 2 mph /  3.2 km/h 5 mph /  8.0 km/h 64 % 0 in /  0.0 mm
10:12 66.4 °F /  19.1 °C 52.9 °F /  11.6 °C 30.3 in /  1026.0 hPa North 2 mph /  3.2 km/h 5 mph /  8.0 km/h 62 % 0 in /  0.0 mm
10:17 66.7 °F /  19.3 °C 50.5 °F /  10.3 °C 30.3 in /  1026.0 hPa West 2 mph /  3.2 km/h 4 mph /  6.4 km/h 56 % 0 in /  0.0 mm
10:22 66.4 °F /  19.1 °C 50.2 °F /  10.1 °C 30.3 in /  1026.0 hPa WNW 3 mph /  4.8 km/h 5 mph /  8.0 km/h 56 % 0 in /  0.0 mm
10:27 66.4 °F /  19.1 °C 51.1 °F /  10.6 °C 30.3 in /  1026.0 hPa Calm   6 mph /  9.7 km/h 58 % 0 in /  0.0 mm
10:32 66.9 °F /  19.4 °C 50.7 °F /  10.4 °C 30.3 in /  1026.0 hPa WNW 1 mph /  1.6 km/h 6 mph /  9.7 km/h 56 % 0 in /  0.0 mm
10:42 66.7 °F /  19.3 °C 51.4 °F /  10.8 °C 30.3 in /  1026.3 hPa WSW 1 mph /  1.6 km/h 6 mph /  9.7 km/h 58 % 0 in /  0.0 mm
10:52 66.7 °F /  19.3 °C 52.3 °F /  11.3 °C 30.3 in /  1026.3 hPa WNW 4 mph /  6.4 km/h 7 mph /  11.3 km/h 60 % 0 in /  0.0 mm
11:02 66.7 °F /  19.3 °C 52 °F /  11.1 °C 30.3 in /  1026.0 hPa WNW 4 mph /  6.4 km/h 9 mph /  14.5 km/h 59 % 0 in /  0.0 mm
11:07 66.9 °F /  19.4 °C 51.6 °F /  10.9 °C 30.3 in /  1026.0 hPa NW 1 mph /  1.6 km/h 7 mph /  11.3 km/h 58 % 0 in /  0.0 mm
11:12 67.3 °F /  19.6 °C 52.5 °F /  11.4 °C 30.3 in /  1026.0 hPa NNE 2 mph /  3.2 km/h 7 mph /  11.3 km/h 59 % 0 in /  0.0 mm
11:17 67.5 °F /  19.7 °C 52.2 °F /  11.2 °C 30.3 in /  1026.0 hPa WNW 4 mph /  6.4 km/h 7 mph /  11.3 km/h 58 % 0 in /  0.0 mm
11:22 67.8 °F /  19.9 °C 52.9 °F /  11.6 °C 30.3 in /  1026.0 hPa North 1 mph /  1.6 km/h 6 mph /  9.7 km/h 59 % 0 in /  0.0 mm
11:32 69.3 °F /  20.7 °C 53.8 °F /  12.1 °C 30.3 in /  1026.0 hPa WNW 5 mph /  8.0 km/h 6 mph /  9.7 km/h 58 % 0 in /  0.0 mm
11:42 68.9 °F /  20.5 °C 54 °F /  12.2 °C 30.3 in /  1026.0 hPa NW 4 mph /  6.4 km/h 7 mph /  11.3 km/h 59 % 0 in /  0.0 mm
11:47 69.1 °F /  20.6 °C 53.6 °F /  12.0 °C 30.3 in /  1025.6 hPa SW 6 mph /  9.7 km/h 8 mph /  12.9 km/h 58 % 0 in /  0.0 mm
11:52 69.4 °F /  20.8 °C 54 °F /  12.2 °C 30.3 in /  1025.6 hPa North 6 mph /  9.7 km/h 8 mph /  12.9 km/h 58 % 0 in /  0.0 mm
11:57 69.6 °F /  20.9 °C 54.1 °F /  12.3 °C 30.3 in /  1025.6 hPa WNW 2 mph /  3.2 km/h 8 mph /  12.9 km/h 58 % 0 in /  0.0 mm
12:02 69.4 °F /  20.8 °C 54 °F /  12.2 °C 30.3 in /  1025.6 hPa West 1 mph /  1.6 km/h 8 mph /  12.9 km/h 58 % 0 in /  0.0 mm
12:12 69.6 °F /  20.9 °C 54.1 °F /  12.3 °C 30.3 in /  1025.6 hPa West 5 mph /  8.0 km/h 9 mph /  14.5 km/h 58 % 0 in /  0.0 mm
12:17 70.2 °F /  21.2 °C 55.2 °F /  12.9 °C 30.3 in /  1025.6 hPa SW 7 mph /  11.3 km/h 9 mph /  14.5 km/h 59 % 0 in /  0.0 mm
12:22 69.8 °F /  21.0 °C 54.3 °F /  12.4 °C 30.3 in /  1025.6 hPa Calm   9 mph /  14.5 km/h 58 % 0 in /  0.0 mm
12:27 70.3 °F /  21.3 °C 54.9 °F /  12.7 °C 30.3 in /  1025.3 hPa West 6 mph /  9.7 km/h 10 mph /  16.1 km/h 58 % 0 in /  0.0 mm
12:32 71.1 °F /  21.7 °C 55.6 °F /  13.1 °C 30.3 in /  1025.3 hPa WNW 1 mph /  1.6 km/h 10 mph /  16.1 km/h 58 % 0 in /  0.0 mm
12:42 70.5 °F /  21.4 °C 55 °F /  12.8 °C 30.3 in /  1025.6 hPa WNW 1 mph /  1.6 km/h 11 mph /  17.7 km/h 58 % 0 in /  0.0 mm
12:47 70.9 °F /  21.6 °C 55.4 °F /  13.0 °C 30.3 in /  1025.6 hPa WNW 7 mph /  11.3 km/h 11 mph /  17.7 km/h 58 % 0 in /  0.0 mm
12:52 71.1 °F /  21.7 °C 55.9 °F /  13.3 °C 30.3 in /  1025.6 hPa ENE 2 mph /  3.2 km/h 11 mph /  17.7 km/h 59 % 0 in /  0.0 mm
13:02 71.4 °F /  21.9 °C 56.3 °F /  13.5 °C 30.3 in /  1026.0 hPa WNW 7 mph /  11.3 km/h 13 mph /  20.9 km/h 59 % 0 in /  0.0 mm
13:07 71.4 °F /  21.9 °C 55.9 °F /  13.3 °C 30.3 in /  1026.0 hPa NW 7 mph /  11.3 km/h 13 mph /  20.9 km/h 58 % 0 in /  0.0 mm
13:12 71.4 °F /  21.9 °C 56.3 °F /  13.5 °C 30.3 in /  1026.0 hPa NW 3 mph /  4.8 km/h 13 mph /  20.9 km/h 59 % 0 in /  0.0 mm
13:17 72 °F /  22.2 °C 55.9 °F /  13.3 °C 30.3 in /  1026.0 hPa NNW 2 mph /  3.2 km/h 11 mph /  17.7 km/h 57 % 0 in /  0.0 mm
13:22 72 °F /  22.2 °C 55.9 °F /  13.3 °C 30.3 in /  1026.0 hPa North 7 mph /  11.3 km/h 12 mph /  19.3 km/h 57 % 0 in /  0.0 mm
13:27 72 °F /  22.2 °C 55.9 °F /  13.3 °C 30.3 in /  1026.0 hPa NNW 7 mph /  11.3 km/h 14 mph /  22.5 km/h 57 % 0 in /  0.0 mm
13:32 71.4 °F /  21.9 °C 55.9 °F /  13.3 °C 30.3 in /  1026.0 hPa West 9 mph /  14.5 km/h 14 mph /  22.5 km/h 58 % 0 in /  0.0 mm
13:37 71.4 °F /  21.9 °C 56.3 °F /  13.5 °C 30.3 in /  1026.0 hPa North 7 mph /  11.3 km/h 14 mph /  22.5 km/h 59 % 0 in /  0.0 mm
13:42 71.8 °F /  22.1 °C 55.2 °F /  12.9 °C 30.3 in /  1026.0 hPa NNE 4 mph /  6.4 km/h 11 mph /  17.7 km/h 56 % 0 in /  0.0 mm
13:47 72 °F /  22.2 °C 55.4 °F /  13.0 °C 30.3 in /  1026.0 hPa WNW 8 mph /  12.9 km/h 11 mph /  17.7 km/h 56 % 0 in /  0.0 mm
13:57 72 °F /  22.2 °C 52.9 °F /  11.6 °C 30.3 in /  1026.0 hPa West 4 mph /  6.4 km/h 13 mph /  20.9 km/h 51 % 0 in /  0.0 mm
14:02 72.1 °F /  22.3 °C 53.6 °F /  12.0 °C 30.3 in /  1026.0 hPa NW 3 mph /  4.8 km/h 13 mph /  20.9 km/h 52 % 0 in /  0.0 mm
14:07 72.1 °F /  22.3 °C 52.5 °F /  11.4 °C 30.3 in /  1026.0 hPa WSW 1 mph /  1.6 km/h 13 mph /  20.9 km/h 50 % 0 in /  0.0 mm
14:12 72.5 °F /  22.5 °C 51.6 °F /  10.9 °C 30.3 in /  1026.0 hPa NNW 3 mph /  4.8 km/h 9 mph /  14.5 km/h 48 % 0 in /  0.0 mm
14:17 72 °F /  22.2 °C 51.3 °F /  10.7 °C 30.3 in /  1026.0 hPa WNW 2 mph /  3.2 km/h 12 mph /  19.3 km/h 48 % 0 in /  0.0 mm
14:22 72.3 °F /  22.4 °C 50.9 °F /  10.5 °C 30.3 in /  1026.0 hPa NNW 5 mph /  8.0 km/h 12 mph /  19.3 km/h 47 % 0 in /  0.0 mm
14:27 72.7 °F /  22.6 °C 48.9 °F /  9.4 °C 30.3 in /  1026.0 hPa WNW 4 mph /  6.4 km/h 12 mph /  19.3 km/h 43 % 0 in /  0.0 mm
14:32 72.1 °F /  22.3 °C 49.6 °F /  9.8 °C 30.3 in /  1026.0 hPa NNW 4 mph /  6.4 km/h 11 mph /  17.7 km/h 45 % 0 in /  0.0 mm
14:37 72.1 °F /  22.3 °C 48.4 °F /  9.1 °C 30.3 in /  1026.0 hPa NE 1 mph /  1.6 km/h 11 mph /  17.7 km/h 43 % 0 in /  0.0 mm
14:42 72.3 °F /  22.4 °C 48.6 °F /  9.2 °C 30.3 in /  1026.0 hPa WNW 3 mph /  4.8 km/h 10 mph /  16.1 km/h 43 % 0 in /  0.0 mm
14:47 72.3 °F /  22.4 °C 49.8 °F /  9.9 °C 30.3 in /  1026.0 hPa WNW 5 mph /  8.0 km/h 12 mph /  19.3 km/h 45 % 0 in /  0.0 mm
14:52 72.3 °F /  22.4 °C 50.4 °F /  10.2 °C 30.3 in /  1026.0 hPa NW 2 mph /  3.2 km/h 12 mph /  19.3 km/h 46 % 0 in /  0.0 mm
14:57 72.3 °F /  22.4 °C 49.8 °F /  9.9 °C 30.3 in /  1026.0 hPa West 1 mph /  1.6 km/h 12 mph /  19.3 km/h 45 % 0 in /  0.0 mm
15:02 73 °F /  22.8 °C 51.6 °F /  10.9 °C 30.3 in /  1026.0 hPa West 4 mph /  6.4 km/h 10 mph /  16.1 km/h 47 % 0 in /  0.0 mm
15:07 73.2 °F /  22.9 °C 50.5 °F /  10.3 °C 30.3 in /  1026.0 hPa WNW 3 mph /  4.8 km/h 11 mph /  17.7 km/h 45 % 0 in /  0.0 mm
15:12 72.9 °F /  22.7 °C 49.6 °F /  9.8 °C 30.3 in /  1026.0 hPa WNW 7 mph /  11.3 km/h 11 mph /  17.7 km/h 44 % 0 in /  0.0 mm
15:17 72.9 °F /  22.7 °C 52.5 °F /  11.4 °C 30.3 in /  1026.0 hPa NNE 5 mph /  8.0 km/h 14 mph /  22.5 km/h 49 % 0 in /  0.0 mm
15:22 73.2 °F /  22.9 °C 51.8 °F /  11.0 °C 30.3 in /  1026.0 hPa WNW 6 mph /  9.7 km/h 14 mph /  22.5 km/h 47 % 0 in /  0.0 mm
15:27 73 °F /  22.8 °C 49.8 °F /  9.9 °C 30.3 in /  1026.0 hPa NW 4 mph /  6.4 km/h 14 mph /  22.5 km/h 44 % 0 in /  0.0 mm
15:32 73 °F /  22.8 °C 49.8 °F /  9.9 °C 30.3 in /  1026.0 hPa NNW 5 mph /  8.0 km/h 12 mph /  19.3 km/h 44 % 0 in /  0.0 mm
15:37 73 °F /  22.8 °C 50.4 °F /  10.2 °C 30.3 in /  1026.0 hPa NW 7 mph /  11.3 km/h 12 mph /  19.3 km/h 45 % 0 in /  0.0 mm
15:42 73.2 °F /  22.9 °C 50 °F /  10.0 °C 30.3 in /  1026.0 hPa Calm   9 mph /  14.5 km/h 44 % 0 in /  0.0 mm
15:47 73.6 °F /  23.1 °C 50.9 °F /  10.5 °C 30.3 in /  1026.0 hPa NW 1 mph /  1.6 km/h 9 mph /  14.5 km/h 45 % 0 in /  0.0 mm
15:52 73.4 °F /  23.0 °C 50.7 °F /  10.4 °C 30.3 in /  1026.0 hPa WNW 11 mph /  17.7 km/h 12 mph /  19.3 km/h 45 % 0 in /  0.0 mm
15:57 73 °F /  22.8 °C 51.1 °F /  10.6 °C 30.3 in /  1026.0 hPa NNW 1 mph /  1.6 km/h 13 mph /  20.9 km/h 46 % 0 in /  0.0 mm
16:02 73 °F /  22.8 °C 51.6 °F /  10.9 °C 30.3 in /  1026.0 hPa West 1 mph /  1.6 km/h 13 mph /  20.9 km/h 47 % 0 in /  0.0 mm
16:07 73 °F /  22.8 °C 48.6 °F /  9.2 °C 30.3 in /  1026.0 hPa NNW 2 mph /  3.2 km/h 13 mph /  20.9 km/h 42 % 0 in /  0.0 mm
16:12 73.2 °F /  22.9 °C 49.5 °F /  9.7 °C 30.3 in /  1026.0 hPa NNW 5 mph /  8.0 km/h 15 mph /  24.1 km/h 43 % 0 in /  0.0 mm
16:17 73.9 °F /  23.3 °C 50.7 °F /  10.4 °C 30.3 in /  1026.0 hPa NNW 5 mph /  8.0 km/h 15 mph /  24.1 km/h 44 % 0 in /  0.0 mm
16:22 74.1 °F /  23.4 °C 49.6 °F /  9.8 °C 30.3 in /  1026.0 hPa West 8 mph /  12.9 km/h 10 mph /  16.1 km/h 42 % 0 in /  0.0 mm
16:27 73.8 °F /  23.2 °C 51.1 °F /  10.6 °C 30.3 in /  1026.0 hPa WNW 4 mph /  6.4 km/h 13 mph /  20.9 km/h 45 % 0 in /  0.0 mm
16:32 73.9 °F /  23.3 °C 51.8 °F /  11.0 °C 30.3 in /  1026.0 hPa WNW 6 mph /  9.7 km/h 13 mph /  20.9 km/h 46 % 0 in /  0.0 mm
16:37 74.5 °F /  23.6 °C 50.5 °F /  10.3 °C 30.3 in /  1026.0 hPa WNW 5 mph /  8.0 km/h 13 mph /  20.9 km/h 43 % 0 in /  0.0 mm
16:42 74.3 °F /  23.5 °C 51.6 °F /  10.9 °C 30.3 in /  1026.0 hPa North 2 mph /  3.2 km/h 13 mph /  20.9 km/h 45 % 0 in /  0.0 mm
16:47 74.3 °F /  23.5 °C 50.4 °F /  10.2 °C 30.3 in /  1026.0 hPa NNE 1 mph /  1.6 km/h 13 mph /  20.9 km/h 43 % 0 in /  0.0 mm
16:52 74.5 °F /  23.6 °C 50.5 °F /  10.3 °C 30.3 in /  1025.6 hPa WNW 10 mph /  16.1 km/h 13 mph /  20.9 km/h 43 % 0 in /  0.0 mm
16:57 74.3 °F /  23.5 °C 49.6 °F /  9.8 °C 30.3 in /  1025.6 hPa WNW 7 mph /  11.3 km/h 12 mph /  19.3 km/h 42 % 0 in /  0.0 mm
17:02 74.5 °F /  23.6 °C 51.8 °F /  11.0 °C 30.3 in /  1025.6 hPa NNW 6 mph /  9.7 km/h 12 mph /  19.3 km/h 45 % 0 in /  0.0 mm
17:07 74.5 °F /  23.6 °C 51.1 °F /  10.6 °C 30.3 in /  1026.0 hPa NE 2 mph /  3.2 km/h 12 mph /  19.3 km/h 44 % 0 in /  0.0 mm
17:12 74.7 °F /  23.7 °C 50.7 °F /  10.4 °C 30.3 in /  1025.6 hPa WNW 4 mph /  6.4 km/h 9 mph /  14.5 km/h 43 % 0 in /  0.0 mm
17:17 74.1 °F /  23.4 °C 50.9 °F /  10.5 °C 30.3 in /  1026.0 hPa NNW 4 mph /  6.4 km/h 11 mph /  17.7 km/h 44 % 0 in /  0.0 mm
17:22 74.3 °F /  23.5 °C 51.6 °F /  10.9 °C 30.3 in /  1025.6 hPa NNW 3 mph /  4.8 km/h 11 mph /  17.7 km/h 45 % 0 in /  0.0 mm
17:27 74.1 °F /  23.4 °C 50.2 °F /  10.1 °C 30.3 in /  1026.0 hPa NNW 9 mph /  14.5 km/h 14 mph /  22.5 km/h 43 % 0 in /  0.0 mm
17:32 74.3 °F /  23.5 °C 49.1 °F /  9.5 °C 30.3 in /  1026.0 hPa NW 2 mph /  3.2 km/h 14 mph /  22.5 km/h 41 % 0 in /  0.0 mm
17:37 74.7 °F /  23.7 °C 50.7 °F /  10.4 °C 30.3 in /  1026.0 hPa WNW 1 mph /  1.6 km/h 14 mph /  22.5 km/h 43 % 0 in /  0.0 mm
17:42 74.7 °F /  23.7 °C 51.3 °F /  10.7 °C 30.3 in /  1025.6 hPa NW 5 mph /  8.0 km/h 11 mph /  17.7 km/h 44 % 0 in /  0.0 mm
17:47 74.5 °F /  23.6 °C 49.8 °F /  9.9 °C 30.3 in /  1025.6 hPa NNW 11 mph /  17.7 km/h 12 mph /  19.3 km/h 42 % 0 in /  0.0 mm
17:52 74.3 °F /  23.5 °C 50.9 °F /  10.5 °C 30.3 in /  1025.6 hPa North 7 mph /  11.3 km/h 12 mph /  19.3 km/h 44 % 0 in /  0.0 mm
17:57 74.3 °F /  23.5 °C 50.4 °F /  10.2 °C 30.3 in /  1025.6 hPa WNW 2 mph /  3.2 km/h 13 mph /  20.9 km/h 43 % 0 in /  0.0 mm
18:02 74.1 °F /  23.4 °C 50.2 °F /  10.1 °C 30.3 in /  1025.6 hPa NW 4 mph /  6.4 km/h 13 mph /  20.9 km/h 43 % 0 in /  0.0 mm
18:07 74.1 °F /  23.4 °C 50.9 °F /  10.5 °C 30.3 in /  1025.6 hPa NNW 6 mph /  9.7 km/h 13 mph /  20.9 km/h 44 % 0 in /  0.0 mm
18:12 74.1 °F /  23.4 °C 50.9 °F /  10.5 °C 30.3 in /  1025.6 hPa NNE 7 mph /  11.3 km/h 11 mph /  17.7 km/h 44 % 0 in /  0.0 mm
18:17 73.9 °F /  23.3 °C 51.3 °F /  10.7 °C 30.3 in /  1025.6 hPa NW 5 mph /  8.0 km/h 11 mph /  17.7 km/h 45 % 0 in /  0.0 mm
18:22 74.5 °F /  23.6 °C 52.3 °F /  11.3 °C 30.3 in /  1026.0 hPa NW 4 mph /  6.4 km/h 11 mph /  17.7 km/h 46 % 0 in /  0.0 mm
18:32 74.1 °F /  23.4 °C 50.9 °F /  10.5 °C 30.3 in /  1026.0 hPa NW 5 mph /  8.0 km/h 11 mph /  17.7 km/h 44 % 0 in /  0.0 mm
18:42 73.8 °F /  23.2 °C 51.1 °F /  10.6 °C 30.3 in /  1025.6 hPa NNE 6 mph /  9.7 km/h 12 mph /  19.3 km/h 45 % 0 in /  0.0 mm
18:47 74.3 °F /  23.5 °C 50.9 °F /  10.5 °C 30.3 in /  1025.6 hPa NNW 3 mph /  4.8 km/h 12 mph /  19.3 km/h 44 % 0 in /  0.0 mm
18:52 74.5 °F /  23.6 °C 50.5 °F /  10.3 °C 30.3 in /  1026.0 hPa NNW 3 mph /  4.8 km/h 11 mph /  17.7 km/h 43 % 0 in /  0.0 mm
18:57 74.3 °F /  23.5 °C 51.6 °F /  10.9 °C 30.3 in /  1025.6 hPa North 8 mph /  12.9 km/h 10 mph /  16.1 km/h 45 % 0 in /  0.0 mm
19:02 73.8 °F /  23.2 °C 51.1 °F /  10.6 °C 30.3 in /  1025.6 hPa NNW 6 mph /  9.7 km/h 17 mph /  27.4 km/h 45 % 0 in /  0.0 mm
19:07 73.4 °F /  23.0 °C 51.4 °F /  10.8 °C 30.3 in /  1026.0 hPa NNW 8 mph /  12.9 km/h 17 mph /  27.4 km/h 46 % 0 in /  0.0 mm
19:12 73.2 °F /  22.9 °C 51.3 °F /  10.7 °C 30.3 in /  1026.0 hPa NNE 2 mph /  3.2 km/h 17 mph /  27.4 km/h 46 % 0 in /  0.0 mm
19:17 73.2 °F /  22.9 °C 51.8 °F /  11.0 °C 30.3 in /  1025.6 hPa NNE 9 mph /  14.5 km/h 12 mph /  19.3 km/h 47 % 0 in /  0.0 mm
19:22 73 °F /  22.8 °C 51.6 °F /  10.9 °C 30.3 in /  1025.6 hPa NE 4 mph /  6.4 km/h 12 mph /  19.3 km/h 47 % 0 in /  0.0 mm
19:27 72.9 °F /  22.7 °C 51.4 °F /  10.8 °C 30.3 in /  1025.6 hPa NNE 8 mph /  12.9 km/h 13 mph /  20.9 km/h 47 % 0 in /  0.0 mm
19:32 73 °F /  22.8 °C 51.1 °F /  10.6 °C 30.3 in /  1026.0 hPa NNE 6 mph /  9.7 km/h 13 mph /  20.9 km/h 46 % 0 in /  0.0 mm
19:37 73 °F /  22.8 °C 51.6 °F /  10.9 °C 30.3 in /  1026.0 hPa North 7 mph /  11.3 km/h 12 mph /  19.3 km/h 47 % 0 in /  0.0 mm
19:42 73 °F /  22.8 °C 51.6 °F /  10.9 °C 30.3 in /  1026.0 hPa NNE 4 mph /  6.4 km/h 11 mph /  17.7 km/h 47 % 0 in /  0.0 mm
19:47 73 °F /  22.8 °C 51.6 °F /  10.9 °C 30.3 in /  1026.0 hPa NNW 9 mph /  14.5 km/h 10 mph /  16.1 km/h 47 % 0 in /  0.0 mm
19:52 72.7 °F /  22.6 °C 51.8 °F /  11.0 °C 30.3 in /  1026.0 hPa NNE 6 mph /  9.7 km/h 12 mph /  19.3 km/h 48 % 0 in /  0.0 mm
19:57 72.7 °F /  22.6 °C 52.3 °F /  11.3 °C 30.3 in /  1026.0 hPa North 11 mph /  17.7 km/h 13 mph /  20.9 km/h 49 % 0 in /  0.0 mm
20:02 72.3 °F /  22.4 °C 51.4 °F /  10.8 °C 30.3 in /  1026.0 hPa NNE 8 mph /  12.9 km/h 13 mph /  20.9 km/h 48 % 0 in /  0.0 mm
20:12 72.1 °F /  22.3 °C 52.5 °F /  11.4 °C 30.3 in /  1026.0 hPa NNE 4 mph /  6.4 km/h 13 mph /  20.9 km/h 50 % 0 in /  0.0 mm
20:17 72 °F /  22.2 °C 51.8 °F /  11.0 °C 30.3 in /  1026.0 hPa NNW 4 mph /  6.4 km/h 8 mph /  12.9 km/h 49 % 0 in /  0.0 mm
20:22 71.6 °F /  22.0 °C 52 °F /  11.1 °C 30.3 in /  1026.0 hPa NE 7 mph /  11.3 km/h 10 mph /  16.1 km/h 50 % 0 in /  0.0 mm
20:27 71.4 °F /  21.9 °C 52.3 °F /  11.3 °C 30.3 in /  1026.3 hPa NE 4 mph /  6.4 km/h 10 mph /  16.1 km/h 51 % 0 in /  0.0 mm
20:32 71.2 °F /  21.8 °C 52.2 °F /  11.2 °C 30.3 in /  1026.3 hPa NNW 4 mph /  6.4 km/h 10 mph /  16.1 km/h 51 % 0 in /  0.0 mm
20:37 71.2 °F /  21.8 °C 52.7 °F /  11.5 °C 30.3 in /  1026.3 hPa North 5 mph /  8.0 km/h 15 mph /  24.1 km/h 52 % 0 in /  0.0 mm
20:47 70.9 °F /  21.6 °C 52.3 °F /  11.3 °C 30.3 in /  1026.3 hPa NE 2 mph /  3.2 km/h 15 mph /  24.1 km/h 52 % 0 in /  0.0 mm
20:52 70.7 °F /  21.5 °C 52.2 °F /  11.2 °C 30.3 in /  1026.3 hPa North 3 mph /  4.8 km/h 10 mph /  16.1 km/h 52 % 0 in /  0.0 mm
20:57 70.5 °F /  21.4 °C 52.5 °F /  11.4 °C 30.3 in /  1026.3 hPa NE 4 mph /  6.4 km/h 10 mph /  16.1 km/h 53 % 0 in /  0.0 mm
21:02 70.2 °F /  21.2 °C 52.2 °F /  11.2 °C 30.3 in /  1026.3 hPa NNE 4 mph /  6.4 km/h 9 mph /  14.5 km/h 53 % 0 in /  0.0 mm
21:07 69.8 °F /  21.0 °C 52 °F /  11.1 °C 30.3 in /  1026.3 hPa North 3 mph /  4.8 km/h 9 mph /  14.5 km/h 53 % 0 in /  0.0 mm
21:12 69.6 °F /  20.9 °C 52.2 °F /  11.2 °C 30.3 in /  1026.3 hPa North 3 mph /  4.8 km/h 9 mph /  14.5 km/h 54 % 0 in /  0.0 mm
21:17 69.4 °F /  20.8 °C 52.2 °F /  11.2 °C 30.3 in /  1026.3 hPa NNE 3 mph /  4.8 km/h 8 mph /  12.9 km/h 54 % 0 in /  0.0 mm
21:22 69.1 °F /  20.6 °C 52.2 °F /  11.2 °C 30.3 in /  1026.3 hPa North 2 mph /  3.2 km/h 8 mph /  12.9 km/h 55 % 0 in /  0.0 mm
21:32 68.4 °F /  20.2 °C 52.5 °F /  11.4 °C 30.3 in /  1026.6 hPa North 2 mph /  3.2 km/h 6 mph /  9.7 km/h 57 % 0 in /  0.0 mm
21:37 67.8 °F /  19.9 °C 52.5 °F /  11.4 °C 30.3 in /  1026.6 hPa NE 1 mph /  1.6 km/h 6 mph /  9.7 km/h 58 % 0 in /  0.0 mm
21:42 67.5 °F /  19.7 °C 52.7 °F /  11.5 °C 30.3 in /  1026.6 hPa North 2 mph /  3.2 km/h 4 mph /  6.4 km/h 59 % 0 in /  0.0 mm
21:47 66.9 °F /  19.4 °C 52.5 °F /  11.4 °C 30.3 in /  1026.6 hPa North 1 mph /  1.6 km/h 4 mph /  6.4 km/h 60 % 0 in /  0.0 mm
21:52 66.7 °F /  19.3 °C 52.3 °F /  11.3 °C 30.3 in /  1026.6 hPa Calm   4 mph /  6.4 km/h 60 % 0 in /  0.0 mm
21:57 66.6 °F /  19.2 °C 52.7 °F /  11.5 °C 30.3 in /  1026.6 hPa NNW 1 mph /  1.6 km/h 4 mph /  6.4 km/h 61 % 0 in /  0.0 mm
22:02 66.4 °F /  19.1 °C 52.5 °F /  11.4 °C 30.3 in /  1026.6 hPa Calm   3 mph /  4.8 km/h 61 % 0 in /  0.0 mm
22:07 66 °F /  18.9 °C 52.7 °F /  11.5 °C 30.3 in /  1026.6 hPa Calm   2 mph /  3.2 km/h 62 % 0 in /  0.0 mm
22:12 65.8 °F /  18.8 °C 52.5 °F /  11.4 °C 30.3 in /  1026.6 hPa NNW 1 mph /  1.6 km/h 2 mph /  3.2 km/h 62 % 0 in /  0.0 mm
22:17 65.5 °F /  18.6 °C 52.5 °F /  11.4 °C 30.3 in /  1027.0 hPa North 2 mph /  3.2 km/h 2 mph /  3.2 km/h 63 % 0 in /  0.0 mm
22:22 65.1 °F /  18.4 °C 52.7 °F /  11.5 °C 30.3 in /  1027.0 hPa Calm   2 mph /  3.2 km/h 64 % 0 in /  0.0 mm
22:32 64.6 °F /  18.1 °C 52.5 °F /  11.4 °C 30.3 in /  1027.0 hPa Calm   2 mph /  3.2 km/h 65 % 0 in /  0.0 mm
22:37 64.4 °F /  18.0 °C 52.9 °F /  11.6 °C 30.3 in /  1027.0 hPa NNW 1 mph /  1.6 km/h 2 mph /  3.2 km/h 66 % 0 in /  0.0 mm
22:42 64 °F /  17.8 °C 52.5 °F /  11.4 °C 30.3 in /  1027.0 hPa Calm   2 mph /  3.2 km/h 66 % 0 in /  0.0 mm
22:52 63.3 °F /  17.4 °C 52.5 °F /  11.4 °C 30.3 in /  1027.0 hPa North 1 mph /  1.6 km/h 1 mph /  1.6 km/h 68 % 0 in /  0.0 mm
22:57 63 °F /  17.2 °C 52.7 °F /  11.5 °C 30.3 in /  1027.0 hPa Calm   1 mph /  1.6 km/h 69 % 0 in /  0.0 mm
23:02 62.8 °F /  17.1 °C 52.5 °F /  11.4 °C 30.3 in /  1027.3 hPa Calm   1 mph /  1.6 km/h 69 % 0 in /  0.0 mm
23:07 62.6 °F /  17.0 °C 52.3 °F /  11.3 °C 30.3 in /  1027.3 hPa Calm   1 mph /  1.6 km/h 69 % 0 in /  0.0 mm
23:12 62.4 °F /  16.9 °C 52.5 °F /  11.4 °C 30.3 in /  1027.3 hPa Calm   1 mph /  1.6 km/h 70 % 0 in /  0.0 mm
23:17 62.2 °F /  16.8 °C 52.3 °F /  11.3 °C 30.3 in /  1027.3 hPa Calm   1 mph /  1.6 km/h 70 % 0 in /  0.0 mm
23:22 62.1 °F /  16.7 °C 52.5 °F /  11.4 °C 30.3 in /  1027.3 hPa Calm   1 mph /  1.6 km/h 71 % 0 in /  0.0 mm
23:32 61.7 °F /  16.5 °C 52.5 °F /  11.4 °C 30.3 in /  1027.3 hPa NW 1 mph /  1.6 km/h 2 mph /  3.2 km/h 72 % 0 in /  0.0 mm
23:37 61.5 °F /  16.4 °C 52.3 °F /  11.3 °C 30.3 in /  1027.3 hPa Calm   2 mph /  3.2 km/h 72 % 0 in /  0.0 mm
23:42 61.3 °F /  16.3 °C 52.7 °F /  11.5 °C 30.3 in /  1027.3 hPa Calm   2 mph /  3.2 km/h 73 % 0 in /  0.0 mm
23:47 61.2 °F /  16.2 °C 52.5 °F /  11.4 °C 30.3 in /  1027.3 hPa WNW 1 mph /  1.6 km/h 2 mph /  3.2 km/h 73 % 0 in /  0.0 mm
23:52 61.2 °F /  16.2 °C 52.5 °F /  11.4 °C 30.3 in /  1027.3 hPa Calm   2 mph /  3.2 km/h 73 % 0 in /  0.0 mm
23:57 61.2 °F /  16.2 °C 52.5 °F /  11.4 °C 30.3 in /  1027.3 hPa Calm   2 mph /  3.2 km/h 73 % 0 in /  0.0 mm
Meteo18
Compliments of Weather Underground - 4 mb

Script developed by  Jim McMurry - jmcmurry@mwt.net Adapted for the template by  Wim van der Kuil - Leuven-Template.eu

You find our weather info also at:

European Weather Network

Weather Underground

Equipment we use:

Weather-station
Davis Vue

Weather-program
Meteohub

Weather-server
Raspberry PI 2 B+

Provider
1 and 1

Davis Vue

Meteohub

Raspberry PI 2 B+

1 and 1